| time (UTC) | temp C | wind direction | speed KPH | gust KPH | rain 1hr cm | rain 24hr cm | rain mn cm | humidity % | barometer mb |
| 20260504100507 | 10 | 0 | 0.0 | 0.0 | 0.00 | 0.00 | 0.00 | 45 | 1017.2 |
| 20260504082006 | 10 | 55 | 0.0 | 1.6 | 0.00 | 0.00 | 0.00 | 48 | 1017.6 |
| 20260504081505 | 10 | 0 | 0.0 | 0.0 | 0.00 | 0.00 | 0.00 | 48 | 1017.6 |
| 20260504081007 | 10 | 0 | 0.0 | 0.0 | 0.00 | 0.00 | 0.00 | 49 | 1017.6 |
| 20260504080507 | 10 | 0 | 0.0 | 0.0 | 0.00 | 0.00 | 0.00 | 48 | 1017.7 |
| 20260504050505 | 12 | 56 | 0.0 | 1.6 | 0.00 | 0.00 | 0.00 | 60 | 1018.6 |
| 20260504050006 | 12 | 56 | 0.0 | 1.6 | 0.00 | 0.00 | 0.00 | 60 | 1018.6 |
| 20260504045506 | 12 | 0 | 0.0 | 0.0 | 0.00 | 0.00 | 0.00 | 61 | 1018.6 |
| 20260504045007 | 12 | 0 | 0.0 | 0.0 | 0.00 | 0.00 | 0.00 | 62 | 1018.6 |
| 20260504044505 | 12 | 0 | 0.0 | 0.0 | 0.00 | 0.00 | 0.00 | 62 | 1018.7 |
| 20260504044006 | 12 | 0 | 0.0 | 0.0 | 0.00 | 0.00 | 0.00 | 63 | 1018.7 |
| 20260504043507 | 12 | 0 | 0.0 | 0.0 | 0.00 | 0.00 | 0.00 | 63 | 1018.8 |
| 20260504043006 | 12 | 55 | 0.0 | 1.6 | 0.00 | 0.00 | 0.00 | 64 | 1018.8 |
| 20260504042507 | 12 | 55 | 0.0 | 1.6 | 0.00 | 0.00 | 0.00 | 64 | 1018.9 |
| 20260504042005 | 12 | 55 | 0.0 | 3.2 | 0.00 | 0.00 | 0.00 | 66 | 1018.9 |
| 20260504041507 | 12 | 55 | 1.6 | 3.2 | 0.00 | 0.00 | 0.00 | 67 | 1018.9 |
| 20260504041006 | 12 | 55 | 0.0 | 1.6 | 0.00 | 0.00 | 0.00 | 68 | 1018.9 |
| 20260504040506 | 13 | 56 | 0.0 | 1.6 | 0.00 | 0.00 | 0.00 | 70 | 1018.9 |
| 20260504040005 | 13 | 55 | 0.0 | 3.2 | 0.00 | 0.00 | 0.00 | 70 | 1018.9 |
| 20260504035506 | 13 | 55 | 0.0 | 3.2 | 0.00 | 0.00 | 0.00 | 71 | 1018.8 |
| 20260504035006 | 13 | 55 | 0.0 | 1.6 | 0.00 | 0.00 | 0.00 | 72 | 1018.8 |
| 20260504034506 | 13 | 0 | 0.0 | 0.0 | 0.00 | 0.00 | 0.00 | 73 | 1018.9 |
| 20260504034005 | 13 | 0 | 0.0 | 0.0 | 0.00 | 0.00 | 0.00 | 73 | 1018.8 |
| 20260504033506 | 13 | 0 | 0.0 | 0.0 | 0.00 | 0.00 | 0.00 | 74 | 1018.9 |
| 20260504033005 | 13 | 0 | 0.0 | 0.0 | 0.00 | 0.00 | 0.00 | 74 | 1018.9 |
| 20260504032506 | 13 | 0 | 0.0 | 0.0 | 0.00 | 0.00 | 0.00 | 75 | 1018.9 |
| 20260504032005 | 13 | 0 | 0.0 | 0.0 | 0.00 | 0.00 | 0.00 | 75 | 1018.9 |
| 20260504031506 | 13 | 56 | 0.0 | 3.2 | 0.00 | 0.00 | 0.00 | 75 | 1018.9 |
| 20260504031005 | 13 | 56 | 0.0 | 3.2 | 0.00 | 0.00 | 0.00 | 75 | 1018.9 |
| 20260504030506 | 14 | 55 | 0.0 | 1.6 | 0.00 | 0.00 | 0.00 | 76 | 1018.8 |
| 20260504030005 | 14 | 56 | 0.0 | 1.6 | 0.00 | 0.00 | 0.00 | 76 | 1018.8 |
| 20260504025507 | 14 | 56 | 0.0 | 1.6 | 0.00 | 0.00 | 0.00 | 76 | 1018.8 |
| 20260504025007 | 14 | 55 | 0.0 | 3.2 | 0.00 | 0.00 | 0.00 | 76 | 1018.7 |
| 20260504024505 | 14 | 55 | 0.0 | 3.2 | 0.00 | 0.00 | 0.00 | 76 | 1018.7 |
| 20260504024005 | 14 | 56 | 0.0 | 3.2 | 0.00 | 0.00 | 0.00 | 76 | 1018.6 |
| 20260504023506 | 15 | 55 | 0.0 | 3.2 | 0.00 | 0.00 | 0.00 | 76 | 1018.6 |
| 20260504023006 | 15 | 55 | 1.6 | 3.2 | 0.00 | 0.00 | 0.00 | 76 | 1018.5 |
| 20260504022505 | 15 | 55 | 0.0 | 3.2 | 0.00 | 0.00 | 0.00 | 75 | 1018.5 |
| 20260504022006 | 15 | 56 | 0.0 | 1.6 | 0.00 | 0.00 | 0.00 | 75 | 1018.5 |
| 20260504021506 | 15 | 55 | 0.0 | 3.2 | 0.00 | 0.00 | 0.00 | 75 | 1018.5 |
| 20260504021006 | 15 | 55 | 1.6 | 3.2 | 0.00 | 0.00 | 0.00 | 75 | 1018.5 |
| 20260504020506 | 15 | 55 | 1.6 | 3.2 | 0.00 | 0.00 | 0.00 | 74 | 1018.4 |
| 20260504020006 | 15 | 55 | 0.0 | 3.2 | 0.00 | 0.00 | 0.00 | 74 | 1018.4 |
| 20260504015506 | 16 | 0 | 0.0 | 0.0 | 0.00 | 0.00 | 0.00 | 72 | 1018.3 |
| 20260504015006 | 16 | 0 | 0.0 | 0.0 | 0.00 | 0.00 | 0.00 | 71 | 1018.3 |
| 20260504014506 | 16 | 0 | 0.0 | 0.0 | 0.00 | 0.00 | 0.00 | 71 | 1018.2 |
| 20260504014006 | 16 | 55 | 0.0 | 1.6 | 0.00 | 0.00 | 0.00 | 70 | 1018.1 |
| 20260504013504 | 16 | 55 | 1.6 | 3.2 | 0.00 | 0.00 | 0.00 | 70 | 1018.0 |
| 20260504013006 | 16 | 55 | 1.6 | 3.2 | 0.00 | 0.00 | 0.00 | 69 | 1018.1 |
| 20260504012505 | 17 | 55 | 0.0 | 3.2 | 0.00 | 0.00 | 0.00 | 68 | 1018.0 |
| 20260504012006 | 17 | 55 | 0.0 | 3.2 | 0.00 | 0.00 | 0.00 | 68 | 1017.9 |
| 20260504011506 | 17 | 55 | 0.0 | 3.2 | 0.00 | 0.00 | 0.00 | 67 | 1017.9 |
| 20260504011007 | 18 | 56 | 0.0 | 1.6 | 0.00 | 0.00 | 0.00 | 65 | 1017.8 |
| 20260504010506 | 18 | 64 | 0.0 | 1.6 | 0.00 | 0.00 | 0.00 | 64 | 1017.9 |
| 20260504010006 | 18 | 67 | 0.0 | 1.6 | 0.00 | 0.00 | 0.00 | 62 | 1017.8 |
| 20260504005506 | 18 | 99 | 0.0 | 1.6 | 0.00 | 0.00 | 0.00 | 61 | 1017.7 |
| 20260504005006 | 19 | 115 | 0.0 | 1.6 | 0.00 | 0.00 | 0.00 | 60 | 1017.7 |
| 20260504004505 | 20 | 134 | 0.0 | 1.6 | 0.00 | 0.00 | 0.00 | 59 | 1017.6 |
| 20260504004006 | 20 | 161 | 0.0 | 1.6 | 0.00 | 0.00 | 0.00 | 57 | 1017.7 |
| 20260504003505 | 20 | 161 | 0.0 | 1.6 | 0.00 | 0.00 | 0.00 | 54 | 1017.7 |
| 20260504003005 | 21 | 161 | 0.0 | 3.2 | 0.00 | 0.00 | 0.00 | 52 | 1017.7 |
| 20260504002506 | 21 | 234 | 1.6 | 3.2 | 0.00 | 0.00 | 0.00 | 50 | 1017.6 |
| 20260504002006 | 22 | 257 | 1.6 | 3.2 | 0.00 | 0.00 | 0.00 | 48 | 1017.6 |
| 20260504001505 | 22 | 252 | 0.0 | 3.2 | 0.00 | 0.00 | 0.00 | 43 | 1017.5 |
| 20260504001005 | 22 | 249 | 1.6 | 3.2 | 0.00 | 0.00 | 0.00 | 43 | 1017.5 |
| 20260504000505 | 23 | 249 | 1.6 | 3.2 | 0.00 | 0.00 | 0.00 | 39 | 1017.5 |
| 20260504000006 | 23 | 248 | 0.0 | 3.2 | 0.00 | 0.00 | 0.00 | 38 | 1017.5 |
| 20260503235506 | 23 | 247 | 0.0 | 3.2 | 0.00 | 0.00 | 0.00 | 38 | 1017.5 |
| 20260503235005 | 24 | 246 | 0.0 | 3.2 | 0.00 | 0.00 | 0.00 | 36 | 1017.5 |
| 20260503234505 | 24 | 246 | 0.0 | 3.2 | 0.00 | 0.00 | 0.00 | 36 | 1017.5 |
| 20260503234006 | 23 | 246 | 1.6 | 4.8 | 0.00 | 0.00 | 0.00 | 39 | 1017.6 |
| 20260503233506 | 23 | 235 | 1.6 | 6.4 | 0.00 | 0.00 | 0.00 | 37 | 1017.7 |
| 20260503233005 | 24 | 218 | 3.2 | 6.4 | 0.00 | 0.00 | 0.00 | 34 | 1017.7 |
| 20260503232505 | 24 | 227 | 3.2 | 6.4 | 0.00 | 0.00 | 0.00 | 34 | 1017.8 |
| 20260503232005 | 24 | 251 | 3.2 | 6.4 | 0.00 | 0.00 | 0.00 | 33 | 1017.8 |
| 20260503231504 | 24 | 262 | 3.2 | 6.4 | 0.00 | 0.00 | 0.00 | 34 | 1017.8 |
| 20260503231005 | 24 | 260 | 1.6 | 6.4 | 0.00 | 0.00 | 0.00 | 33 | 1017.8 |
| 20260503230505 | 23 | 266 | 3.2 | 11.3 | 0.00 | 0.00 | 0.00 | 32 | 1017.9 |
| 20260503230004 | 23 | 271 | 6.4 | 11.3 | 0.00 | 0.00 | 0.00 | 32 | 1017.9 |
| 20260503225506 | 23 | 292 | 6.4 | 9.7 | 0.00 | 0.00 | 0.00 | 33 | 1017.8 |
| 20260503225006 | 24 | 304 | 4.8 | 11.3 | 0.00 | 0.00 | 0.00 | 32 | 1017.9 |
| 20260503224506 | 25 | 278 | 3.2 | 11.3 | 0.00 | 0.00 | 0.00 | 31 | 1017.8 |
| 20260503224004 | 25 | 259 | 3.2 | 6.4 | 0.00 | 0.00 | 0.00 | 32 | 1017.8 |
| 20260503223505 | 25 | 260 | 3.2 | 6.4 | 0.00 | 0.00 | 0.00 | 35 | 1017.8 |
| 20260503223005 | 25 | 260 | 1.6 | 8.0 | 0.00 | 0.00 | 0.00 | 32 | 1017.8 |
| 20260503222505 | 24 | 270 | 3.2 | 9.7 | 0.00 | 0.00 | 0.00 | 34 | 1017.9 |
| 20260503222005 | 24 | 264 | 4.8 | 9.7 | 0.00 | 0.00 | 0.00 | 33 | 1018.0 |
| 20260503221505 | 24 | 259 | 4.8 | 9.7 | 0.00 | 0.00 | 0.00 | 32 | 1018.1 |
| 20260503221006 | 24 | 254 | 4.8 | 9.7 | 0.00 | 0.00 | 0.00 | 32 | 1018.1 |
| 20260503220505 | 24 | 242 | 3.2 | 9.7 | 0.00 | 0.00 | 0.00 | 33 | 1018.1 |
| 20260503220005 | 24 | 262 | 4.8 | 16.1 | 0.00 | 0.00 | 0.00 | 33 | 1018.1 |
| 20260503215505 | 23 | 284 | 6.4 | 16.1 | 0.00 | 0.00 | 0.00 | 32 | 1018.2 |
| 20260503215005 | 24 | 304 | 6.4 | 12.9 | 0.00 | 0.00 | 0.00 | 33 | 1018.3 |
| 20260503214505 | 24 | 339 | 4.8 | 11.3 | 0.00 | 0.00 | 0.00 | 32 | 1018.3 |
| 20260503214005 | 24 | 359 | 3.2 | 11.3 | 0.00 | 0.00 | 0.00 | 32 | 1018.3 |
| 20260503213506 | 24 | 1 | 4.8 | 11.3 | 0.00 | 0.00 | 0.00 | 33 | 1018.4 |
| 20260503213005 | 24 | 345 | 4.8 | 12.9 | 0.00 | 0.00 | 0.00 | 35 | 1018.5 |
| 20260503212506 | 23 | 289 | 6.4 | 12.9 | 0.00 | 0.00 | 0.00 | 33 | 1018.5 |
| 20260503212005 | 24 | 271 | 6.4 | 14.5 | 0.00 | 0.00 | 0.00 | 34 | 1018.7 |
| 20260503211504 | 24 | 270 | 6.4 | 16.1 | 0.00 | 0.00 | 0.00 | 35 | 1018.7 |
| 20260503211004 | 23 | 288 | 6.4 | 16.1 | 0.00 | 0.00 | 0.00 | 35 | 1018.7 |
| 20260503210504 | 23 | 307 | 6.4 | 12.9 | 0.00 | 0.00 | 0.00 | 33 | 1018.8 |
| 20260503210006 | 24 | 310 | 6.4 | 12.9 | 0.00 | 0.00 | 0.00 | 32 | 1018.9 |
| 20260503205505 | 24 | 349 | 4.8 | 12.9 | 0.00 | 0.00 | 0.00 | 33 | 1019.0 |
| 20260503205005 | 24 | 21 | 3.2 | 11.3 | 0.00 | 0.00 | 0.00 | 32 | 1019.1 |
| 20260503204504 | 23 | 353 | 4.8 | 14.5 | 0.00 | 0.00 | 0.00 | 35 | 1019.2 |
| 20260503204005 | 23 | 323 | 4.8 | 14.5 | 0.00 | 0.00 | 0.00 | 32 | 1019.2 |
| 20260503203507 | 23 | 306 | 4.8 | 14.5 | 0.00 | 0.00 | 0.00 | 32 | 1019.4 |
| 20260503203006 | 23 | 299 | 4.8 | 11.3 | 0.00 | 0.00 | 0.00 | 35 | 1019.4 |
| 20260503202507 | 23 | 274 | 8.0 | 19.3 | 0.00 | 0.00 | 0.00 | 32 | 1019.5 |
| 20260503202007 | 23 | 264 | 8.0 | 19.3 | 0.00 | 0.00 | 0.00 | 32 | 1019.5 |
| 20260503201507 | 23 | 262 | 3.2 | 12.9 | 0.00 | 0.00 | 0.00 | 32 | 1019.6 |
| 20260503201006 | 24 | 208 | 3.2 | 8.0 | 0.00 | 0.00 | 0.00 | 34 | 1019.7 |
| 20260503200507 | 23 | 230 | 3.2 | 11.3 | 0.00 | 0.00 | 0.00 | 35 | 1019.8 |
| 20260503200007 | 23 | 257 | 4.8 | 11.3 | 0.00 | 0.00 | 0.00 | 35 | 1019.9 |
| 20260503195507 | 23 | 303 | 4.8 | 11.3 | 0.00 | 0.00 | 0.00 | 37 | 1020.0 |
| 20260503195007 | 23 | 312 | 6.4 | 12.9 | 0.00 | 0.00 | 0.00 | 35 | 1020.1 |
| 20260503194507 | 23 | 291 | 6.4 | 16.1 | 0.00 | 0.00 | 0.00 | 35 | 1020.2 |
| 20260503194007 | 23 | 286 | 6.4 | 16.1 | 0.00 | 0.00 | 0.00 | 35 | 1020.3 |
| 20260503193507 | 23 | 292 | 6.4 | 12.9 | 0.00 | 0.00 | 0.00 | 34 | 1020.3 |
| 20260503193006 | 23 | 341 | 4.8 | 12.9 | 0.00 | 0.00 | 0.00 | 36 | 1020.4 |
| 20260503192506 | 23 | 349 | 4.8 | 12.9 | 0.00 | 0.00 | 0.00 | 36 | 1020.5 |
| 20260503192007 | 23 | 270 | 6.4 | 17.7 | 0.00 | 0.00 | 0.00 | 37 | 1020.7 |
| 20260503191507 | 23 | 270 | 4.8 | 17.7 | 0.00 | 0.00 | 0.00 | 37 | 1020.7 |
| 20260503191006 | 23 | 261 | 3.2 | 6.4 | 0.00 | 0.00 | 0.00 | 36 | 1020.9 |
| 20260503190506 | 23 | 247 | 3.2 | 12.9 | 0.00 | 0.00 | 0.00 | 36 | 1020.9 |
| 20260503190006 | 22 | 250 | 4.8 | 12.9 | 0.00 | 0.00 | 0.00 | 39 | 1021.0 |
| 20260503185506 | 22 | 291 | 6.4 | 12.9 | 0.00 | 0.00 | 0.00 | 36 | 1021.2 |
| 20260503185006 | 22 | 291 | 6.4 | 12.9 | 0.00 | 0.00 | 0.00 | 38 | 1021.2 |
| 20260503184506 | 22 | 256 | 6.4 | 17.7 | 0.00 | 0.00 | 0.00 | 38 | 1021.3 |
| 20260503184008 | 22 | 272 | 8.0 | 17.7 | 0.00 | 0.00 | 0.00 | 36 | 1021.4 |
| 20260503183507 | 22 | 281 | 6.4 | 14.5 | 0.00 | 0.00 | 0.00 | 41 | 1021.4 |
| 20260503183007 | 22 | 260 | 4.8 | 9.7 | 0.00 | 0.00 | 0.00 | 41 | 1021.4 |
| 20260503182507 | 22 | 266 | 6.4 | 12.9 | 0.00 | 0.00 | 0.00 | 39 | 1021.4 |
| 20260503182006 | 21 | 289 | 6.4 | 14.5 | 0.00 | 0.00 | 0.00 | 37 | 1021.5 |
| 20260503181507 | 22 | 320 | 4.8 | 14.5 | 0.00 | 0.00 | 0.00 | 37 | 1021.6 |
| 20260503181006 | 22 | 286 | 4.8 | 11.3 | 0.00 | 0.00 | 0.00 | 39 | 1021.6 |
| 20260503180507 | 22 | 242 | 6.4 | 12.9 | 0.00 | 0.00 | 0.00 | 39 | 1021.6 |
| 20260503180006 | 22 | 238 | 6.4 | 12.9 | 0.00 | 0.00 | 0.00 | 40 | 1021.7 |
| 20260503175507 | 21 | 275 | 6.4 | 12.9 | 0.00 | 0.00 | 0.00 | 40 | 1021.8 |
| 20260503175007 | 22 | 307 | 4.8 | 12.9 | 0.00 | 0.00 | 0.00 | 39 | 1021.8 |
| 20260503174507 | 22 | 288 | 3.2 | 12.9 | 0.00 | 0.00 | 0.00 | 39 | 1022.0 |
| 20260503174007 | 22 | 334 | 4.8 | 12.9 | 0.00 | 0.00 | 0.00 | 38 | 1022.0 |
| 20260503173507 | 22 | 318 | 6.4 | 12.9 | 0.00 | 0.00 | 0.00 | 36 | 1022.1 |
| 20260503173006 | 22 | 295 | 6.4 | 12.9 | 0.00 | 0.00 | 0.00 | 37 | 1022.2 |
| 20260503172506 | 22 | 323 | 4.8 | 14.5 | 0.00 | 0.00 | 0.00 | 38 | 1022.3 |
| 20260503172006 | 22 | 321 | 4.8 | 14.5 | 0.00 | 0.00 | 0.00 | 36 | 1022.4 |
| 20260503171507 | 22 | 305 | 4.8 | 14.5 | 0.00 | 0.00 | 0.00 | 40 | 1022.4 |
| 20260503171006 | 21 | 289 | 6.4 | 19.3 | 0.00 | 0.00 | 0.00 | 38 | 1022.4 |
| 20260503170507 | 21 | 287 | 8.0 | 19.3 | 0.00 | 0.00 | 0.00 | 41 | 1022.5 |
| 20260503151007 | 20 | 277 | 3.2 | 4.8 | 0.00 | 0.00 | 0.00 | 50 | 1023.5 |
| 20260503150507 | 19 | 265 | 3.2 | 4.8 | 0.00 | 0.00 | 0.00 | 50 | 1023.5 |
| 20260503131005 | 12 | 15 | 0.0 | 3.2 | 0.00 | 0.03 | 0.00 | 74 | 1022.6 |
| 20260503130506 | 12 | 15 | 0.0 | 3.2 | 0.00 | 0.03 | 0.00 | 71 | 1022.6 |
| 20260503110506 | 7 | 88 | 1.6 | 8.0 | 0.00 | 0.03 | 0.00 | 47 | 1021.3 |